sensor_id;sensor_type;location;lat;lon;timestamp;P1;durP1;ratioP1;P2;durP2;ratioP2
74495;SDS011;62979;55.720;37.606;2023-06-19T00:02:27;2.25;;;1.05;;
74495;SDS011;62979;55.720;37.606;2023-06-19T00:04:54;2.78;;;1.23;;
74495;SDS011;62979;55.720;37.606;2023-06-19T00:07:21;2.80;;;1.17;;
74495;SDS011;62979;55.720;37.606;2023-06-19T00:09:49;4.30;;;1.15;;
74495;SDS011;62979;55.720;37.606;2023-06-19T00:12:16;4.57;;;1.15;;
74495;SDS011;62979;55.720;37.606;2023-06-19T00:14:43;3.85;;;1.13;;
74495;SDS011;62979;55.720;37.606;2023-06-19T00:17:10;1.90;;;1.00;;
74495;SDS011;62979;55.720;37.606;2023-06-19T00:19:38;2.40;;;1.10;;
74495;SDS011;62979;55.720;37.606;2023-06-19T00:22:05;4.88;;;1.48;;
74495;SDS011;62979;55.720;37.606;2023-06-19T00:24:32;2.47;;;0.80;;
74495;SDS011;62979;55.720;37.606;2023-06-19T00:27:00;4.07;;;1.17;;
74495;SDS011;62979;55.720;37.606;2023-06-19T00:29:27;2.65;;;1.27;;
74495;SDS011;62979;55.720;37.606;2023-06-19T00:31:54;4.15;;;1.42;;
74495;SDS011;62979;55.720;37.606;2023-06-19T00:34:21;2.15;;;1.13;;
74495;SDS011;62979;55.720;37.606;2023-06-19T00:39:16;3.38;;;0.93;;
74495;SDS011;62979;55.720;37.606;2023-06-19T00:41:43;1.90;;;1.05;;
74495;SDS011;62979;55.720;37.606;2023-06-19T00:44:14;3.00;;;1.10;;
74495;SDS011;62979;55.720;37.606;2023-06-19T00:46:41;3.38;;;0.98;;
74495;SDS011;62979;55.720;37.606;2023-06-19T00:49:08;2.40;;;1.00;;
74495;SDS011;62979;55.720;37.606;2023-06-19T00:51:35;1.55;;;0.90;;
74495;SDS011;62979;55.720;37.606;2023-06-19T00:54:03;4.15;;;1.65;;
74495;SDS011;62979;55.720;37.606;2023-06-19T00:56:31;2.20;;;0.95;;
74495;SDS011;62979;55.720;37.606;2023-06-19T00:58:59;3.40;;;1.92;;
74495;SDS011;62979;55.720;37.606;2023-06-19T01:01:30;3.85;;;1.10;;
74495;SDS011;62979;55.720;37.606;2023-06-19T01:03:57;2.35;;;1.00;;
74495;SDS011;62979;55.720;37.606;2023-06-19T01:06:24;3.13;;;1.30;;
74495;SDS011;62979;55.720;37.606;2023-06-19T01:11:36;1.77;;;1.23;;
74495;SDS011;62979;55.720;37.606;2023-06-19T01:14:12;1.80;;;0.75;;
74495;SDS011;62979;55.720;37.606;2023-06-19T01:16:46;3.92;;;1.38;;
74495;SDS011;62979;55.720;37.606;2023-06-19T01:19:15;2.78;;;1.42;;
74495;SDS011;62979;55.720;37.606;2023-06-19T01:21:46;4.43;;;1.00;;
74495;SDS011;62979;55.720;37.606;2023-06-19T01:24:15;3.08;;;1.35;;
74495;SDS011;62979;55.720;37.606;2023-06-19T01:26:42;3.10;;;1.35;;
74495;SDS011;62979;55.720;37.606;2023-06-19T01:29:11;3.15;;;1.38;;
74495;SDS011;62979;55.720;37.606;2023-06-19T01:31:42;3.95;;;1.10;;
74495;SDS011;62979;55.720;37.606;2023-06-19T01:34:18;2.72;;;1.52;;
74495;SDS011;62979;55.720;37.606;2023-06-19T01:36:47;2.05;;;1.30;;
74495;SDS011;62979;55.720;37.606;2023-06-19T01:39:17;2.55;;;1.35;;
74495;SDS011;62979;55.720;37.606;2023-06-19T01:41:46;3.35;;;1.27;;
74495;SDS011;62979;55.720;37.606;2023-06-19T01:44:14;3.90;;;1.30;;
74495;SDS011;62979;55.720;37.606;2023-06-19T01:46:41;3.65;;;1.67;;
74495;SDS011;62979;55.720;37.606;2023-06-19T01:49:08;5.03;;;1.10;;
74495;SDS011;62979;55.720;37.606;2023-06-19T01:51:35;4.35;;;1.35;;
74495;SDS011;62979;55.720;37.606;2023-06-19T01:54:02;4.55;;;1.10;;
74495;SDS011;62979;55.720;37.606;2023-06-19T01:56:32;2.13;;;1.00;;
74495;SDS011;62979;55.720;37.606;2023-06-19T01:58:59;3.97;;;1.52;;
74495;SDS011;62979;55.720;37.606;2023-06-19T02:01:26;3.05;;;1.27;;
74495;SDS011;62979;55.720;37.606;2023-06-19T02:03:53;2.17;;;1.00;;
74495;SDS011;62979;55.720;37.606;2023-06-19T02:06:20;3.47;;;0.95;;
74495;SDS011;62979;55.720;37.606;2023-06-19T02:08:47;3.10;;;1.13;;
74495;SDS011;62979;55.720;37.606;2023-06-19T02:11:14;4.20;;;1.30;;
74495;SDS011;62979;55.720;37.606;2023-06-19T02:13:43;2.30;;;1.10;;
74495;SDS011;62979;55.720;37.606;2023-06-19T02:16:11;2.53;;;1.25;;
74495;SDS011;62979;55.720;37.606;2023-06-19T02:18:38;2.63;;;0.80;;
74495;SDS011;62979;55.720;37.606;2023-06-19T02:21:05;3.28;;;1.95;;
74495;SDS011;62979;55.720;37.606;2023-06-19T02:23:32;3.60;;;1.33;;
74495;SDS011;62979;55.720;37.606;2023-06-19T02:25:59;2.95;;;1.00;;
74495;SDS011;62979;55.720;37.606;2023-06-19T02:28:26;2.28;;;0.88;;
74495;SDS011;62979;55.720;37.606;2023-06-19T02:30:54;2.55;;;1.13;;
74495;SDS011;62979;55.720;37.606;2023-06-19T02:33:21;3.00;;;1.10;;
74495;SDS011;62979;55.720;37.606;2023-06-19T02:35:48;2.55;;;1.27;;
74495;SDS011;62979;55.720;37.606;2023-06-19T02:38:15;1.50;;;0.90;;
74495;SDS011;62979;55.720;37.606;2023-06-19T02:40:46;2.25;;;0.80;;
74495;SDS011;62979;55.720;37.606;2023-06-19T02:43:13;3.22;;;1.35;;
74495;SDS011;62979;55.720;37.606;2023-06-19T02:45:40;3.35;;;1.00;;
74495;SDS011;62979;55.720;37.606;2023-06-19T02:48:09;3.55;;;1.45;;
74495;SDS011;62979;55.720;37.606;2023-06-19T02:50:36;2.35;;;1.02;;
74495;SDS011;62979;55.720;37.606;2023-06-19T02:53:02;2.65;;;1.13;;
74495;SDS011;62979;55.720;37.606;2023-06-19T02:55:29;1.92;;;1.00;;
74495;SDS011;62979;55.720;37.606;2023-06-19T02:57:56;3.40;;;1.25;;
74495;SDS011;62979;55.720;37.606;2023-06-19T03:00:23;3.08;;;1.05;;
74495;SDS011;62979;55.720;37.606;2023-06-19T03:02:52;2.75;;;1.00;;
74495;SDS011;62979;55.720;37.606;2023-06-19T03:05:20;3.95;;;1.25;;
74495;SDS011;62979;55.720;37.606;2023-06-19T03:07:47;4.18;;;1.33;;
74495;SDS011;62979;55.720;37.606;2023-06-19T03:10:14;2.42;;;1.25;;
74495;SDS011;62979;55.720;37.606;2023-06-19T03:12:41;4.78;;;1.38;;
74495;SDS011;62979;55.720;37.606;2023-06-19T03:15:08;4.28;;;1.70;;
74495;SDS011;62979;55.720;37.606;2023-06-19T03:20:03;3.25;;;1.55;;
74495;SDS011;62979;55.720;37.606;2023-06-19T03:22:32;4.10;;;1.58;;
74495;SDS011;62979;55.720;37.606;2023-06-19T03:24:59;2.38;;;1.35;;
74495;SDS011;62979;55.720;37.606;2023-06-19T03:27:26;3.63;;;1.20;;
74495;SDS011;62979;55.720;37.606;2023-06-19T03:29:54;5.30;;;1.25;;
74495;SDS011;62979;55.720;37.606;2023-06-19T03:32:21;3.33;;;1.20;;
74495;SDS011;62979;55.720;37.606;2023-06-19T03:34:48;1.92;;;1.08;;
74495;SDS011;62979;55.720;37.606;2023-06-19T03:37:15;3.97;;;1.40;;
74495;SDS011;62979;55.720;37.606;2023-06-19T03:39:43;3.85;;;1.30;;
74495;SDS011;62979;55.720;37.606;2023-06-19T03:42:10;4.45;;;1.48;;
74495;SDS011;62979;55.720;37.606;2023-06-19T03:44:38;3.17;;;1.35;;
74495;SDS011;62979;55.720;37.606;2023-06-19T03:47:05;5.45;;;1.23;;
74495;SDS011;62979;55.720;37.606;2023-06-19T03:49:33;4.63;;;1.10;;
74495;SDS011;62979;55.720;37.606;2023-06-19T03:52:00;2.38;;;1.40;;
74495;SDS011;62979;55.720;37.606;2023-06-19T03:54:27;3.85;;;1.33;;
74495;SDS011;62979;55.720;37.606;2023-06-19T03:56:55;5.75;;;1.30;;
74495;SDS011;62979;55.720;37.606;2023-06-19T03:59:22;2.60;;;1.08;;
74495;SDS011;62979;55.720;37.606;2023-06-19T04:01:49;3.33;;;1.73;;
74495;SDS011;62979;55.720;37.606;2023-06-19T04:04:15;5.43;;;2.00;;
74495;SDS011;62979;55.720;37.606;2023-06-19T04:06:42;8.02;;;1.70;;
74495;SDS011;62979;55.720;37.606;2023-06-19T04:09:09;12.60;;;2.30;;
74495;SDS011;62979;55.720;37.606;2023-06-19T04:11:36;6.32;;;1.77;;
74495;SDS011;62979;55.720;37.606;2023-06-19T04:14:04;2.47;;;1.50;;
74495;SDS011;62979;55.720;37.606;2023-06-19T04:16:31;5.63;;;1.10;;
74495;SDS011;62979;55.720;37.606;2023-06-19T04:18:58;2.35;;;1.20;;
74495;SDS011;62979;55.720;37.606;2023-06-19T04:21:25;3.70;;;1.50;;
74495;SDS011;62979;55.720;37.606;2023-06-19T04:23:52;7.80;;;1.20;;
74495;SDS011;62979;55.720;37.606;2023-06-19T04:26:19;2.58;;;1.95;;
74495;SDS011;62979;55.720;37.606;2023-06-19T04:28:46;2.40;;;1.48;;
74495;SDS011;62979;55.720;37.606;2023-06-19T04:31:15;4.88;;;1.70;;
74495;SDS011;62979;55.720;37.606;2023-06-19T04:33:43;4.13;;;1.20;;
74495;SDS011;62979;55.720;37.606;2023-06-19T04:38:38;3.40;;;1.13;;
74495;SDS011;62979;55.720;37.606;2023-06-19T04:41:04;3.28;;;1.30;;
74495;SDS011;62979;55.720;37.606;2023-06-19T04:43:31;6.13;;;1.48;;
74495;SDS011;62979;55.720;37.606;2023-06-19T04:45:59;3.80;;;1.65;;
74495;SDS011;62979;55.720;37.606;2023-06-19T04:48:30;3.38;;;1.90;;
74495;SDS011;62979;55.720;37.606;2023-06-19T04:50:57;2.17;;;1.00;;
74495;SDS011;62979;55.720;37.606;2023-06-19T04:53:26;1.30;;;1.02;;
74495;SDS011;62979;55.720;37.606;2023-06-19T04:55:53;1.80;;;1.20;;
74495;SDS011;62979;55.720;37.606;2023-06-19T04:58:20;3.72;;;1.40;;
74495;SDS011;62979;55.720;37.606;2023-06-19T05:00:47;4.00;;;1.33;;
74495;SDS011;62979;55.720;37.606;2023-06-19T05:03:17;3.85;;;0.70;;
74495;SDS011;62979;55.720;37.606;2023-06-19T05:05:45;2.38;;;1.23;;
74495;SDS011;62979;55.720;37.606;2023-06-19T05:08:12;2.85;;;1.17;;
74495;SDS011;62979;55.720;37.606;2023-06-19T05:10:40;5.25;;;1.30;;
74495;SDS011;62979;55.720;37.606;2023-06-19T05:13:06;6.28;;;1.35;;
74495;SDS011;62979;55.720;37.606;2023-06-19T05:15:33;4.38;;;1.27;;
74495;SDS011;62979;55.720;37.606;2023-06-19T05:18:00;2.35;;;1.05;;
74495;SDS011;62979;55.720;37.606;2023-06-19T05:22:56;3.95;;;1.13;;
74495;SDS011;62979;55.720;37.606;2023-06-19T05:25:23;4.13;;;1.63;;
74495;SDS011;62979;55.720;37.606;2023-06-19T05:27:50;4.15;;;1.35;;
74495;SDS011;62979;55.720;37.606;2023-06-19T05:30:17;5.70;;;1.38;;
74495;SDS011;62979;55.720;37.606;2023-06-19T05:32:44;3.35;;;1.02;;
74495;SDS011;62979;55.720;37.606;2023-06-19T05:35:10;4.03;;;0.90;;
74495;SDS011;62979;55.720;37.606;2023-06-19T05:37:37;4.45;;;1.23;;
74495;SDS011;62979;55.720;37.606;2023-06-19T05:40:09;4.45;;;1.50;;
74495;SDS011;62979;55.720;37.606;2023-06-19T05:42:37;3.65;;;1.63;;
74495;SDS011;62979;55.720;37.606;2023-06-19T05:45:05;3.80;;;1.55;;
74495;SDS011;62979;55.720;37.606;2023-06-19T05:47:33;3.67;;;1.10;;
74495;SDS011;62979;55.720;37.606;2023-06-19T05:50:00;3.15;;;1.45;;
74495;SDS011;62979;55.720;37.606;2023-06-19T05:52:27;5.85;;;2.05;;
74495;SDS011;62979;55.720;37.606;2023-06-19T05:54:54;2.28;;;1.13;;
74495;SDS011;62979;55.720;37.606;2023-06-19T05:57:24;1.80;;;1.42;;
74495;SDS011;62979;55.720;37.606;2023-06-19T05:59:51;6.47;;;1.27;;
74495;SDS011;62979;55.720;37.606;2023-06-19T06:02:20;3.10;;;1.33;;
74495;SDS011;62979;55.720;37.606;2023-06-19T06:04:47;2.55;;;1.40;;
74495;SDS011;62979;55.720;37.606;2023-06-19T06:07:14;5.82;;;1.25;;
74495;SDS011;62979;55.720;37.606;2023-06-19T06:09:41;6.70;;;1.30;;
74495;SDS011;62979;55.720;37.606;2023-06-19T06:12:09;5.00;;;1.33;;
74495;SDS011;62979;55.720;37.606;2023-06-19T06:14:38;3.20;;;0.90;;
74495;SDS011;62979;55.720;37.606;2023-06-19T06:17:06;2.10;;;0.98;;
74495;SDS011;62979;55.720;37.606;2023-06-19T06:19:33;2.50;;;0.82;;
74495;SDS011;62979;55.720;37.606;2023-06-19T06:22:02;2.38;;;0.90;;
74495;SDS011;62979;55.720;37.606;2023-06-19T06:24:29;3.38;;;1.90;;
74495;SDS011;62979;55.720;37.606;2023-06-19T06:26:56;3.63;;;1.85;;
74495;SDS011;62979;55.720;37.606;2023-06-19T06:29:24;3.95;;;1.55;;
74495;SDS011;62979;55.720;37.606;2023-06-19T06:32:02;1.33;;;0.80;;
74495;SDS011;62979;55.720;37.606;2023-06-19T06:34:30;2.25;;;1.10;;
74495;SDS011;62979;55.720;37.606;2023-06-19T06:36:58;3.45;;;1.20;;
74495;SDS011;62979;55.720;37.606;2023-06-19T06:39:25;2.42;;;1.13;;
74495;SDS011;62979;55.720;37.606;2023-06-19T06:41:52;5.28;;;1.25;;
74495;SDS011;62979;55.720;37.606;2023-06-19T06:44:19;1.58;;;1.05;;
74495;SDS011;62979;55.720;37.606;2023-06-19T06:46:46;4.18;;;1.30;;
74495;SDS011;62979;55.720;37.606;2023-06-19T06:49:14;5.10;;;1.10;;
74495;SDS011;62979;55.720;37.606;2023-06-19T06:51:42;2.10;;;0.93;;
74495;SDS011;62979;55.720;37.606;2023-06-19T06:54:08;4.30;;;1.05;;
74495;SDS011;62979;55.720;37.606;2023-06-19T06:56:36;3.08;;;1.10;;
74495;SDS011;62979;55.720;37.606;2023-06-19T06:59:02;2.83;;;1.20;;
74495;SDS011;62979;55.720;37.606;2023-06-19T07:01:29;3.58;;;1.20;;
74495;SDS011;62979;55.720;37.606;2023-06-19T07:03:56;1.83;;;1.08;;
74495;SDS011;62979;55.720;37.606;2023-06-19T07:06:24;3.33;;;1.48;;
74495;SDS011;62979;55.720;37.606;2023-06-19T07:08:52;3.25;;;1.27;;
74495;SDS011;62979;55.720;37.606;2023-06-19T07:11:19;3.25;;;1.50;;
74495;SDS011;62979;55.720;37.606;2023-06-19T07:13:46;2.70;;;1.08;;
74495;SDS011;62979;55.720;37.606;2023-06-19T07:16:12;4.55;;;1.38;;
74495;SDS011;62979;55.720;37.606;2023-06-19T07:18:39;4.60;;;1.35;;
74495;SDS011;62979;55.720;37.606;2023-06-19T07:21:08;3.10;;;1.33;;
74495;SDS011;62979;55.720;37.606;2023-06-19T07:23:40;4.65;;;1.40;;
74495;SDS011;62979;55.720;37.606;2023-06-19T07:26:12;2.78;;;1.20;;
74495;SDS011;62979;55.720;37.606;2023-06-19T07:28:39;3.25;;;1.60;;
74495;SDS011;62979;55.720;37.606;2023-06-19T07:31:06;3.53;;;1.30;;
74495;SDS011;62979;55.720;37.606;2023-06-19T07:33:33;5.10;;;1.00;;
74495;SDS011;62979;55.720;37.606;2023-06-19T07:36:00;4.63;;;1.00;;
74495;SDS011;62979;55.720;37.606;2023-06-19T07:38:27;6.00;;;1.38;;
74495;SDS011;62979;55.720;37.606;2023-06-19T07:40:56;3.70;;;1.10;;
74495;SDS011;62979;55.720;37.606;2023-06-19T07:43:23;3.05;;;1.10;;
74495;SDS011;62979;55.720;37.606;2023-06-19T07:45:50;2.03;;;1.33;;
74495;SDS011;62979;55.720;37.606;2023-06-19T07:48:16;4.78;;;1.30;;
74495;SDS011;62979;55.720;37.606;2023-06-19T07:50:43;2.65;;;1.00;;
74495;SDS011;62979;55.720;37.606;2023-06-19T07:53:11;2.60;;;1.20;;
74495;SDS011;62979;55.720;37.606;2023-06-19T07:55:37;3.67;;;1.33;;
74495;SDS011;62979;55.720;37.606;2023-06-19T07:58:06;8.88;;;1.42;;
74495;SDS011;62979;55.720;37.606;2023-06-19T08:00:33;2.90;;;1.38;;
74495;SDS011;62979;55.720;37.606;2023-06-19T08:03:00;2.65;;;1.10;;
74495;SDS011;62979;55.720;37.606;2023-06-19T08:05:27;7.78;;;1.83;;
74495;SDS011;62979;55.720;37.606;2023-06-19T08:07:55;6.82;;;1.17;;
74495;SDS011;62979;55.720;37.606;2023-06-19T08:10:24;5.65;;;2.00;;
74495;SDS011;62979;55.720;37.606;2023-06-19T08:12:52;2.20;;;1.00;;
74495;SDS011;62979;55.720;37.606;2023-06-19T08:15:20;1.95;;;1.02;;
74495;SDS011;62979;55.720;37.606;2023-06-19T08:17:47;4.38;;;1.60;;
74495;SDS011;62979;55.720;37.606;2023-06-19T08:20:15;6.03;;;1.35;;
74495;SDS011;62979;55.720;37.606;2023-06-19T08:22:42;5.03;;;1.25;;
74495;SDS011;62979;55.720;37.606;2023-06-19T08:25:09;8.07;;;2.22;;
74495;SDS011;62979;55.720;37.606;2023-06-19T08:27:36;2.78;;;1.23;;
74495;SDS011;62979;55.720;37.606;2023-06-19T08:30:04;4.15;;;1.40;;
74495;SDS011;62979;55.720;37.606;2023-06-19T08:32:34;6.32;;;1.45;;
74495;SDS011;62979;55.720;37.606;2023-06-19T08:35:01;6.03;;;2.42;;
74495;SDS011;62979;55.720;37.606;2023-06-19T08:37:29;4.93;;;1.65;;
74495;SDS011;62979;55.720;37.606;2023-06-19T08:39:55;4.25;;;1.38;;
74495;SDS011;62979;55.720;37.606;2023-06-19T08:42:22;2.83;;;1.58;;
74495;SDS011;62979;55.720;37.606;2023-06-19T08:44:49;2.40;;;1.15;;
74495;SDS011;62979;55.720;37.606;2023-06-19T08:47:16;3.20;;;1.77;;
74495;SDS011;62979;55.720;37.606;2023-06-19T08:49:44;4.88;;;2.13;;
74495;SDS011;62979;55.720;37.606;2023-06-19T08:52:11;4.40;;;1.88;;
74495;SDS011;62979;55.720;37.606;2023-06-19T08:54:38;3.72;;;1.92;;
74495;SDS011;62979;55.720;37.606;2023-06-19T08:57:09;5.80;;;1.63;;
74495;SDS011;62979;55.720;37.606;2023-06-19T08:59:36;5.47;;;2.28;;
74495;SDS011;62979;55.720;37.606;2023-06-19T09:02:03;4.13;;;2.25;;
74495;SDS011;62979;55.720;37.606;2023-06-19T09:04:31;6.43;;;1.40;;
74495;SDS011;62979;55.720;37.606;2023-06-19T09:07:00;3.38;;;1.88;;
74495;SDS011;62979;55.720;37.606;2023-06-19T09:09:29;4.57;;;1.98;;
74495;SDS011;62979;55.720;37.606;2023-06-19T09:11:58;3.72;;;2.38;;
74495;SDS011;62979;55.720;37.606;2023-06-19T09:14:33;3.40;;;2.15;;
74495;SDS011;62979;55.720;37.606;2023-06-19T09:17:02;3.80;;;1.58;;
74495;SDS011;62979;55.720;37.606;2023-06-19T09:19:30;3.65;;;1.70;;
74495;SDS011;62979;55.720;37.606;2023-06-19T09:22:01;2.33;;;1.73;;
74495;SDS011;62979;55.720;37.606;2023-06-19T09:24:34;6.00;;;1.42;;
74495;SDS011;62979;55.720;37.606;2023-06-19T09:27:08;9.60;;;1.88;;
74495;SDS011;62979;55.720;37.606;2023-06-19T09:29:38;5.65;;;1.75;;
74495;SDS011;62979;55.720;37.606;2023-06-19T09:32:15;3.58;;;1.73;;
74495;SDS011;62979;55.720;37.606;2023-06-19T09:34:44;2.47;;;1.58;;
74495;SDS011;62979;55.720;37.606;2023-06-19T09:39:40;6.20;;;1.20;;
74495;SDS011;62979;55.720;37.606;2023-06-19T09:42:08;3.20;;;1.63;;
74495;SDS011;62979;55.720;37.606;2023-06-19T09:44:39;3.70;;;1.60;;
74495;SDS011;62979;55.720;37.606;2023-06-19T09:47:11;2.65;;;1.48;;
74495;SDS011;62979;55.720;37.606;2023-06-19T09:49:48;4.53;;;2.08;;
74495;SDS011;62979;55.720;37.606;2023-06-19T09:52:21;7.10;;;1.65;;
74495;SDS011;62979;55.720;37.606;2023-06-19T09:54:49;3.85;;;1.67;;
74495;SDS011;62979;55.720;37.606;2023-06-19T09:57:18;4.78;;;1.67;;
74495;SDS011;62979;55.720;37.606;2023-06-19T10:02:16;3.00;;;1.63;;
74495;SDS011;62979;55.720;37.606;2023-06-19T10:04:44;5.03;;;1.60;;
74495;SDS011;62979;55.720;37.606;2023-06-19T10:07:15;2.63;;;1.75;;
74495;SDS011;62979;55.720;37.606;2023-06-19T10:10:02;4.70;;;1.98;;
74495;SDS011;62979;55.720;37.606;2023-06-19T10:12:38;5.10;;;2.17;;
74495;SDS011;62979;55.720;37.606;2023-06-19T10:15:11;3.45;;;1.73;;
74495;SDS011;62979;55.720;37.606;2023-06-19T10:17:43;2.72;;;1.58;;
74495;SDS011;62979;55.720;37.606;2023-06-19T10:20:22;2.40;;;1.58;;
74495;SDS011;62979;55.720;37.606;2023-06-19T10:25:31;5.15;;;2.22;;
74495;SDS011;62979;55.720;37.606;2023-06-19T10:30:26;2.58;;;1.80;;
74495;SDS011;62979;55.720;37.606;2023-06-19T10:32:54;2.30;;;2.03;;
74495;SDS011;62979;55.720;37.606;2023-06-19T10:35:22;3.38;;;2.88;;
74495;SDS011;62979;55.720;37.606;2023-06-19T10:37:50;5.30;;;2.40;;
74495;SDS011;62979;55.720;37.606;2023-06-19T10:40:17;2.55;;;2.15;;
74495;SDS011;62979;55.720;37.606;2023-06-19T10:42:46;3.83;;;2.40;;
74495;SDS011;62979;55.720;37.606;2023-06-19T10:45:13;3.58;;;2.80;;
74495;SDS011;62979;55.720;37.606;2023-06-19T10:47:45;1.80;;;1.70;;
74495;SDS011;62979;55.720;37.606;2023-06-19T10:50:13;2.33;;;2.08;;
74495;SDS011;62979;55.720;37.606;2023-06-19T10:52:41;2.95;;;2.35;;
74495;SDS011;62979;55.720;37.606;2023-06-19T10:55:11;3.30;;;2.30;;
74495;SDS011;62979;55.720;37.606;2023-06-19T10:57:39;2.08;;;1.88;;
74495;SDS011;62979;55.720;37.606;2023-06-19T11:00:11;4.57;;;2.33;;
74495;SDS011;62979;55.720;37.606;2023-06-19T11:02:50;3.00;;;2.22;;
74495;SDS011;62979;55.720;37.606;2023-06-19T11:05:19;3.67;;;2.28;;
74495;SDS011;62979;55.720;37.606;2023-06-19T11:07:51;5.03;;;2.58;;
74495;SDS011;62979;55.720;37.606;2023-06-19T11:10:22;2.97;;;2.30;;
74495;SDS011;62979;55.720;37.606;2023-06-19T11:12:53;3.00;;;2.50;;
74495;SDS011;62979;55.720;37.606;2023-06-19T11:15:29;2.72;;;1.85;;
74495;SDS011;62979;55.720;37.606;2023-06-19T11:17:57;3.20;;;2.90;;
74495;SDS011;62979;55.720;37.606;2023-06-19T11:20:26;3.10;;;2.90;;
74495;SDS011;62979;55.720;37.606;2023-06-19T11:22:55;3.58;;;2.42;;
74495;SDS011;62979;55.720;37.606;2023-06-19T11:25:34;4.07;;;2.60;;
74495;SDS011;62979;55.720;37.606;2023-06-19T11:28:02;4.05;;;2.63;;
74495;SDS011;62979;55.720;37.606;2023-06-19T11:30:32;3.15;;;2.85;;
74495;SDS011;62979;55.720;37.606;2023-06-19T11:33:00;3.75;;;3.03;;
74495;SDS011;62979;55.720;37.606;2023-06-19T11:35:32;4.10;;;3.42;;
74495;SDS011;62979;55.720;37.606;2023-06-19T11:38:01;3.47;;;3.22;;
74495;SDS011;62979;55.720;37.606;2023-06-19T11:40:28;4.30;;;2.70;;
74495;SDS011;62979;55.720;37.606;2023-06-19T11:43:04;3.30;;;3.00;;
74495;SDS011;62979;55.720;37.606;2023-06-19T11:45:32;3.83;;;2.35;;
74495;SDS011;62979;55.720;37.606;2023-06-19T11:47:59;3.28;;;3.05;;
74495;SDS011;62979;55.720;37.606;2023-06-19T11:50:31;4.45;;;2.83;;
74495;SDS011;62979;55.720;37.606;2023-06-19T11:52:58;3.03;;;2.22;;
74495;SDS011;62979;55.720;37.606;2023-06-19T11:55:26;5.15;;;2.97;;
74495;SDS011;62979;55.720;37.606;2023-06-19T11:57:53;3.75;;;2.38;;
74495;SDS011;62979;55.720;37.606;2023-06-19T12:00:20;2.83;;;2.03;;
74495;SDS011;62979;55.720;37.606;2023-06-19T12:02:48;2.75;;;2.53;;
74495;SDS011;62979;55.720;37.606;2023-06-19T12:05:17;3.10;;;2.88;;
74495;SDS011;62979;55.720;37.606;2023-06-19T12:07:44;3.17;;;2.88;;
74495;SDS011;62979;55.720;37.606;2023-06-19T12:10:11;3.35;;;2.95;;
74495;SDS011;62979;55.720;37.606;2023-06-19T12:12:38;3.72;;;1.90;;
74495;SDS011;62979;55.720;37.606;2023-06-19T12:15:06;3.88;;;3.00;;
74495;SDS011;62979;55.720;37.606;2023-06-19T12:17:33;2.92;;;2.63;;
74495;SDS011;62979;55.720;37.606;2023-06-19T12:20:02;6.03;;;3.45;;
74495;SDS011;62979;55.720;37.606;2023-06-19T12:22:31;3.00;;;2.78;;
74495;SDS011;62979;55.720;37.606;2023-06-19T12:24:59;2.55;;;1.98;;
74495;SDS011;62979;55.720;37.606;2023-06-19T12:27:26;3.42;;;2.35;;
74495;SDS011;62979;55.720;37.606;2023-06-19T12:29:53;5.63;;;2.65;;
74495;SDS011;62979;55.720;37.606;2023-06-19T12:32:20;3.55;;;2.65;;
74495;SDS011;62979;55.720;37.606;2023-06-19T12:34:47;5.05;;;2.05;;
74495;SDS011;62979;55.720;37.606;2023-06-19T12:37:15;3.15;;;2.95;;
74495;SDS011;62979;55.720;37.606;2023-06-19T12:39:43;2.88;;;2.65;;
74495;SDS011;62979;55.720;37.606;2023-06-19T12:42:10;2.58;;;2.33;;
74495;SDS011;62979;55.720;37.606;2023-06-19T12:44:38;3.53;;;2.20;;
74495;SDS011;62979;55.720;37.606;2023-06-19T12:47:06;3.00;;;2.20;;
74495;SDS011;62979;55.720;37.606;2023-06-19T12:49:34;4.47;;;3.15;;
74495;SDS011;62979;55.720;37.606;2023-06-19T12:52:01;5.55;;;2.97;;
74495;SDS011;62979;55.720;37.606;2023-06-19T12:54:29;4.43;;;2.92;;
74495;SDS011;62979;55.720;37.606;2023-06-19T12:56:56;2.67;;;2.15;;
74495;SDS011;62979;55.720;37.606;2023-06-19T12:59:23;2.75;;;2.55;;
74495;SDS011;62979;55.720;37.606;2023-06-19T13:01:51;4.07;;;2.60;;
74495;SDS011;62979;55.720;37.606;2023-06-19T13:04:18;4.65;;;2.85;;
74495;SDS011;62979;55.720;37.606;2023-06-19T13:06:45;3.20;;;2.40;;
74495;SDS011;62979;55.720;37.606;2023-06-19T13:09:12;3.05;;;2.75;;
74495;SDS011;62979;55.720;37.606;2023-06-19T13:11:40;4.00;;;2.65;;
74495;SDS011;62979;55.720;37.606;2023-06-19T13:14:07;4.18;;;2.75;;
74495;SDS011;62979;55.720;37.606;2023-06-19T13:16:34;2.65;;;2.15;;
74495;SDS011;62979;55.720;37.606;2023-06-19T13:19:01;3.50;;;2.08;;
74495;SDS011;62979;55.720;37.606;2023-06-19T13:21:29;6.10;;;3.42;;
74495;SDS011;62979;55.720;37.606;2023-06-19T13:23:56;4.00;;;2.78;;
74495;SDS011;62979;55.720;37.606;2023-06-19T13:26:23;4.93;;;2.80;;
74495;SDS011;62979;55.720;37.606;2023-06-19T13:28:51;3.55;;;3.25;;
74495;SDS011;62979;55.720;37.606;2023-06-19T13:31:18;4.38;;;2.20;;
74495;SDS011;62979;55.720;37.606;2023-06-19T13:33:45;3.38;;;3.08;;
74495;SDS011;62979;55.720;37.606;2023-06-19T13:36:11;6.18;;;2.58;;
74495;SDS011;62979;55.720;37.606;2023-06-19T13:38:38;6.63;;;3.25;;
74495;SDS011;62979;55.720;37.606;2023-06-19T13:41:05;5.05;;;2.20;;
74495;SDS011;62979;55.720;37.606;2023-06-19T13:43:32;3.47;;;2.60;;
74495;SDS011;62979;55.720;37.606;2023-06-19T13:46:00;2.67;;;2.08;;
74495;SDS011;62979;55.720;37.606;2023-06-19T13:48:30;3.55;;;2.92;;
74495;SDS011;62979;55.720;37.606;2023-06-19T13:50:57;3.72;;;2.92;;
74495;SDS011;62979;55.720;37.606;2023-06-19T13:53:24;3.80;;;3.03;;
74495;SDS011;62979;55.720;37.606;2023-06-19T13:55:53;2.42;;;2.15;;
74495;SDS011;62979;55.720;37.606;2023-06-19T13:58:20;4.03;;;2.03;;
74495;SDS011;62979;55.720;37.606;2023-06-19T14:00:47;3.80;;;1.98;;
74495;SDS011;62979;55.720;37.606;2023-06-19T14:03:15;6.93;;;2.50;;
74495;SDS011;62979;55.720;37.606;2023-06-19T14:05:42;2.53;;;1.98;;
74495;SDS011;62979;55.720;37.606;2023-06-19T14:08:09;5.05;;;1.98;;
74495;SDS011;62979;55.720;37.606;2023-06-19T14:10:36;7.53;;;2.80;;
74495;SDS011;62979;55.720;37.606;2023-06-19T14:13:03;5.05;;;2.40;;
74495;SDS011;62979;55.720;37.606;2023-06-19T14:15:30;3.53;;;2.50;;
74495;SDS011;62979;55.720;37.606;2023-06-19T14:17:56;4.03;;;2.58;;
74495;SDS011;62979;55.720;37.606;2023-06-19T14:20:25;3.65;;;2.28;;
74495;SDS011;62979;55.720;37.606;2023-06-19T14:22:52;4.10;;;2.08;;
74495;SDS011;62979;55.720;37.606;2023-06-19T14:25:18;3.10;;;2.85;;
74495;SDS011;62979;55.720;37.606;2023-06-19T14:27:45;5.00;;;2.85;;
74495;SDS011;62979;55.720;37.606;2023-06-19T14:30:12;6.22;;;2.17;;
74495;SDS011;62979;55.720;37.606;2023-06-19T14:32:40;10.20;;;4.57;;
74495;SDS011;62979;55.720;37.606;2023-06-19T14:35:07;10.25;;;4.40;;
74495;SDS011;62979;55.720;37.606;2023-06-19T14:37:35;5.35;;;3.63;;
74495;SDS011;62979;55.720;37.606;2023-06-19T14:40:02;3.95;;;3.00;;
74495;SDS011;62979;55.720;37.606;2023-06-19T14:42:30;4.07;;;2.92;;
74495;SDS011;62979;55.720;37.606;2023-06-19T14:44:57;4.32;;;2.03;;
74495;SDS011;62979;55.720;37.606;2023-06-19T14:47:24;2.75;;;2.55;;
74495;SDS011;62979;55.720;37.606;2023-06-19T14:49:51;3.47;;;2.30;;
74495;SDS011;62979;55.720;37.606;2023-06-19T14:52:18;2.30;;;1.90;;
74495;SDS011;62979;55.720;37.606;2023-06-19T14:54:47;2.80;;;2.58;;
74495;SDS011;62979;55.720;37.606;2023-06-19T14:57:14;2.80;;;2.53;;
74495;SDS011;62979;55.720;37.606;2023-06-19T14:59:41;4.20;;;2.53;;
74495;SDS011;62979;55.720;37.606;2023-06-19T15:02:08;2.85;;;2.50;;